createdAt,value
2023-12-09T00:00:00.133Z,22
2023-12-09T00:05:00.159Z,17.5
2023-12-09T00:10:00.139Z,21.3
2023-12-09T00:15:00.105Z,22
2023-12-09T00:20:00.152Z,22.6
2023-12-09T00:25:00.226Z,21.6
2023-12-09T00:30:00.182Z,23.8
2023-12-09T00:35:00.109Z,23
2023-12-09T00:40:00.105Z,25.7
2023-12-09T00:45:00.243Z,22.7
2023-12-09T00:50:00.125Z,21.6
2023-12-09T00:55:00.120Z,21.1
2023-12-09T01:00:00.155Z,22.2
2023-12-09T01:05:00.219Z,23.1
2023-12-09T01:10:00.125Z,25.3
2023-12-09T01:15:00.181Z,18.3
2023-12-09T01:20:00.262Z,22.1
2023-12-09T01:25:00.140Z,21.8
2023-12-09T01:30:00.212Z,21.2
2023-12-09T01:35:00.106Z,20.2
2023-12-09T01:40:00.099Z,22.3
2023-12-09T01:45:00.272Z,19
2023-12-09T01:50:00.238Z,14.6
2023-12-09T01:55:00.121Z,15
2023-12-09T02:00:00.139Z,14.2
2023-12-09T02:05:00.224Z,14.4
2023-12-09T02:10:00.133Z,16.2
2023-12-09T02:15:00.209Z,13.9
2023-12-09T02:20:00.112Z,17.9
2023-12-09T02:25:00.150Z,15.1
2023-12-09T02:30:00.126Z,17.2
2023-12-09T02:35:00.110Z,14.5
2023-12-09T02:40:00.112Z,15.6
2023-12-09T02:45:00.163Z,14.8
2023-12-09T02:50:00.180Z,12
2023-12-09T02:55:00.140Z,9.3
2023-12-09T03:00:00.169Z,11.2
2023-12-09T03:05:00.192Z,12.9
2023-12-09T03:10:00.133Z,8.4
2023-12-09T03:15:00.114Z,14.3
2023-12-09T03:20:00.108Z,10.1
2023-12-09T03:25:00.153Z,14
2023-12-09T03:30:00.149Z,10.2
2023-12-09T03:35:00.120Z,12.3
2023-12-09T03:40:00.119Z,15.1
2023-12-09T03:45:00.163Z,11.7
2023-12-09T03:50:00.123Z,11.1
2023-12-09T03:55:00.098Z,14
2023-12-09T04:00:00.161Z,10
2023-12-09T04:05:00.242Z,9.9
2023-12-09T04:10:00.124Z,11.2
2023-12-09T04:15:00.098Z,10.2
2023-12-09T04:20:00.289Z,10.3
2023-12-09T04:25:00.195Z,11
2023-12-09T04:30:00.146Z,10.2
2023-12-09T04:35:00.111Z,7
2023-12-09T04:40:00.124Z,7.6
2023-12-09T04:45:00.169Z,7.7
2023-12-09T04:50:00.128Z,7.1
2023-12-09T04:55:00.122Z,7.5
2023-12-09T05:00:00.191Z,8.8
2023-12-09T05:05:00.157Z,8.9
2023-12-09T05:10:00.085Z,8.2
2023-12-09T05:15:00.112Z,7.6
2023-12-09T05:20:00.106Z,9.2
2023-12-09T05:25:00.155Z,9
2023-12-09T05:30:00.147Z,10.2
2023-12-09T05:35:00.091Z,9.2
2023-12-09T05:40:00.154Z,9.1
2023-12-09T05:45:00.246Z,10.5
2023-12-09T05:50:00.225Z,9.8
2023-12-09T05:55:00.109Z,6.9
2023-12-09T06:00:00.303Z,9.3
2023-12-09T06:05:00.140Z,9.1
2023-12-09T06:10:00.113Z,10.6
2023-12-09T06:15:00.150Z,10.4
2023-12-09T06:20:00.151Z,10.7
2023-12-09T06:25:00.125Z,9.7
2023-12-09T06:30:00.145Z,11.3
2023-12-09T06:35:00.172Z,9
2023-12-09T06:40:00.099Z,9.9
2023-12-09T06:45:00.182Z,9.2
2023-12-09T06:50:00.099Z,9.8
2023-12-09T06:55:00.115Z,11.2
2023-12-09T07:00:00.114Z,12.9
2023-12-09T07:05:00.149Z,10.8
2023-12-09T07:10:00.143Z,13.9
2023-12-09T07:15:00.184Z,12.9
2023-12-09T07:20:00.150Z,13.4
2023-12-09T07:25:00.124Z,12.4
2023-12-09T07:30:00.180Z,10.6
2023-12-09T07:35:00.173Z,12.3
2023-12-09T07:40:00.120Z,14.7
2023-12-09T07:45:00.207Z,13
2023-12-09T07:50:00.208Z,14.2
2023-12-09T07:55:00.105Z,11.5
2023-12-09T08:00:00.172Z,13.3
2023-12-09T08:05:00.140Z,11.8
2023-12-09T08:10:00.137Z,11.9
2023-12-09T08:15:00.160Z,10.9
2023-12-09T08:20:00.129Z,14.5
2023-12-09T08:25:00.140Z,11.7
2023-12-09T08:30:00.153Z,11.4
2023-12-09T08:35:03.383Z,13.3
2023-12-09T08:40:00.161Z,12.6
2023-12-09T08:45:00.218Z,12.6
2023-12-09T08:50:00.173Z,11
2023-12-09T08:55:01.743Z,11.1
2023-12-09T09:00:00.150Z,15.2
2023-12-09T09:05:00.165Z,11.1
2023-12-09T09:10:00.113Z,15.1
2023-12-09T09:15:01.919Z,12.3
2023-12-09T09:20:00.301Z,13.2
2023-12-09T09:25:00.250Z,14.2
2023-12-09T09:30:00.260Z,12
2023-12-09T09:35:00.186Z,10.9
2023-12-09T09:40:00.143Z,11.4
2023-12-09T09:45:00.163Z,11.5
2023-12-09T09:50:00.194Z,11
2023-12-09T09:55:00.102Z,11.8
2023-12-09T10:00:00.211Z,11.5
2023-12-09T10:05:00.161Z,10.4
2023-12-09T10:10:00.102Z,12.3
2023-12-09T10:15:00.186Z,10.9
2023-12-09T10:20:00.248Z,9.6
2023-12-09T10:25:00.219Z,10.1
2023-12-09T10:30:00.190Z,12
2023-12-09T10:35:02.276Z,12.2
2023-12-09T10:40:00.101Z,8.4
2023-12-09T10:45:00.196Z,8.9
2023-12-09T10:50:00.476Z,8.7
2023-12-09T10:55:00.156Z,8.5
2023-12-09T11:00:00.184Z,8
2023-12-09T11:05:00.289Z,9.2
2023-12-09T11:10:00.138Z,7.8
2023-12-09T11:15:00.171Z,7
2023-12-09T11:20:00.294Z,8.3
2023-12-09T11:25:00.139Z,7.2
2023-12-09T11:30:01.905Z,6.9
2023-12-09T11:35:00.102Z,9.4
2023-12-09T11:40:00.088Z,8.4
2023-12-09T11:45:00.202Z,8.3
2023-12-09T11:50:00.114Z,7.3
2023-12-09T11:55:00.114Z,7.2
2023-12-09T12:00:00.175Z,7.5
2023-12-09T12:05:00.147Z,9.5
2023-12-09T12:10:00.086Z,8.9
2023-12-09T12:15:00.340Z,8.3
2023-12-09T12:20:00.105Z,9.1
2023-12-09T12:25:00.117Z,6.8
2023-12-09T12:30:00.238Z,6.8
2023-12-09T12:35:00.169Z,7.9
2023-12-09T12:40:00.140Z,7
2023-12-09T12:45:00.274Z,6.7
2023-12-09T12:50:00.313Z,8.1
2023-12-09T12:55:00.129Z,7.7
2023-12-09T13:00:03.886Z,7.8
2023-12-09T13:05:00.143Z,8.5
2023-12-09T13:10:00.117Z,8.4
2023-12-09T13:15:00.169Z,10
2023-12-09T13:20:00.241Z,10.8
2023-12-09T13:25:00.842Z,8.9
2023-12-09T13:30:00.130Z,8.8
2023-12-09T13:35:00.145Z,9.6
2023-12-09T13:40:00.410Z,9
2023-12-09T13:45:00.258Z,7.4
2023-12-09T13:50:00.100Z,8.7
2023-12-09T13:55:00.189Z,9.3
2023-12-09T14:00:00.333Z,8.7
2023-12-09T14:05:00.190Z,9
2023-12-09T14:10:00.186Z,9.7
2023-12-09T14:15:00.101Z,10.6
2023-12-09T14:20:00.251Z,8
2023-12-09T14:25:00.159Z,8.6
2023-12-09T14:30:00.091Z,10.1
2023-12-09T14:35:00.272Z,9.9
2023-12-09T14:40:00.121Z,9.9
2023-12-09T14:45:00.144Z,9.8
2023-12-09T14:50:00.171Z,8.5
2023-12-09T14:55:00.159Z,9.3
2023-12-09T15:00:00.124Z,9.5
2023-12-09T15:05:00.173Z,9.5
2023-12-09T15:10:00.119Z,7.4
2023-12-09T15:15:00.128Z,8.3
2023-12-09T15:20:00.181Z,8.9
2023-12-09T15:25:00.179Z,7.5
2023-12-09T15:30:00.133Z,10.4
2023-12-09T15:35:00.289Z,7.3
2023-12-09T15:40:00.102Z,7.9
2023-12-09T15:45:00.159Z,6.6
2023-12-09T15:50:00.148Z,6.8
2023-12-09T15:55:00.098Z,8.7
2023-12-09T16:00:00.097Z,10
2023-12-09T16:05:00.177Z,9.4
2023-12-09T16:10:00.213Z,10.2
2023-12-09T16:15:02.473Z,10.3
2023-12-09T16:20:00.169Z,9.1
2023-12-09T16:25:00.137Z,10
2023-12-09T16:30:00.199Z,10.2
2023-12-09T16:35:00.127Z,11.5
2023-12-09T16:40:00.188Z,9.9
2023-12-09T16:45:00.195Z,11.6
2023-12-09T16:50:00.136Z,10.6
2023-12-09T16:55:00.097Z,13.2
2023-12-09T17:00:00.113Z,12.3
2023-12-09T17:05:00.241Z,12.6
2023-12-09T17:10:00.145Z,11.2
2023-12-09T17:15:00.118Z,9.9
2023-12-09T17:20:00.175Z,11.3
2023-12-09T17:25:00.187Z,9.6
2023-12-09T17:30:00.127Z,10
2023-12-09T17:35:00.146Z,7.4
2023-12-09T17:40:00.112Z,6.9
2023-12-09T17:45:00.204Z,8.3
2023-12-09T17:50:00.164Z,9.2
2023-12-09T17:55:00.104Z,8.4
2023-12-09T18:00:00.118Z,7.7
2023-12-09T18:05:00.165Z,7.3
2023-12-09T18:10:00.123Z,8.5
2023-12-09T18:15:00.122Z,8.3
2023-12-09T18:20:00.094Z,8.2
2023-12-09T18:25:00.227Z,7.7
2023-12-09T18:30:00.104Z,6.3
2023-12-09T18:35:00.122Z,6.1
2023-12-09T18:40:00.113Z,4.6
2023-12-09T18:45:00.138Z,5.6
2023-12-09T18:50:00.231Z,5.7
2023-12-09T18:55:00.091Z,5.2
2023-12-09T19:00:00.139Z,4.3
2023-12-09T19:05:00.204Z,5.9
2023-12-09T19:10:02.231Z,6.9
2023-12-09T19:15:00.124Z,5.1
2023-12-09T19:20:00.474Z,4.8
2023-12-09T19:25:00.166Z,4.3
2023-12-09T19:30:00.127Z,8.1
2023-12-09T19:35:00.176Z,7.3
2023-12-09T19:40:00.100Z,6.1
2023-12-09T19:45:00.185Z,5.7
2023-12-09T19:50:00.164Z,5.9
2023-12-09T19:55:00.117Z,6.2
2023-12-09T20:00:00.113Z,4.7
2023-12-09T20:05:00.189Z,4.4
2023-12-09T20:10:00.134Z,4.9
2023-12-09T20:15:00.136Z,3.4
2023-12-09T20:20:00.234Z,4.5
2023-12-09T20:25:00.151Z,2.6
2023-12-09T20:30:00.133Z,2.8
2023-12-09T20:35:00.104Z,2.8
2023-12-09T20:40:00.125Z,1.9
2023-12-09T20:45:00.117Z,2.5
2023-12-09T20:50:00.187Z,2.3
2023-12-09T20:55:00.121Z,2.1
2023-12-09T21:00:00.131Z,1.3
2023-12-09T21:05:00.171Z,1.8
2023-12-09T21:10:00.102Z,2.8
2023-12-09T21:15:00.172Z,2.1
2023-12-09T21:20:00.161Z,2.5
2023-12-09T21:25:00.212Z,1.5
2023-12-09T21:30:00.126Z,1.3
2023-12-09T21:35:00.224Z,1.6
2023-12-09T21:40:00.807Z,2
2023-12-09T21:45:00.129Z,1.6
2023-12-09T21:50:00.163Z,2.1
2023-12-09T21:55:00.107Z,2.1
2023-12-09T22:00:00.120Z,3.5
2023-12-09T22:05:00.127Z,3.5
2023-12-09T22:10:00.097Z,1.9
2023-12-09T22:15:00.158Z,2.6
2023-12-09T22:20:00.208Z,1.6
2023-12-09T22:25:00.165Z,3.5
2023-12-09T22:30:00.135Z,2.7
2023-12-09T22:35:00.225Z,2.3
2023-12-09T22:40:00.234Z,2.3
2023-12-09T22:45:00.243Z,2.6
2023-12-09T22:50:00.276Z,3
2023-12-09T22:55:00.102Z,2.5
2023-12-09T23:00:00.133Z,2.7
2023-12-09T23:05:00.129Z,2.2
2023-12-09T23:10:00.234Z,3.3
2023-12-09T23:15:00.102Z,1.7
2023-12-09T23:20:00.082Z,2
2023-12-09T23:25:00.139Z,2.5
2023-12-09T23:30:00.089Z,3
2023-12-09T23:35:05.093Z,2.3
2023-12-09T23:40:00.107Z,1.6
2023-12-09T23:45:00.149Z,1.6
2023-12-09T23:50:00.162Z,2.9
2023-12-09T23:55:00.120Z,4.4
